sensor_id;sensor_type;location;lat;lon;timestamp;P1;durP1;ratioP1;P2;durP2;ratioP2
79019;SDS011;72857;44.740;37.770;2024-03-23T00:54:44;15.65;;;8.38;;
79019;SDS011;72857;44.740;37.770;2024-03-23T00:55:45;15.93;;;9.32;;
79019;SDS011;72857;44.740;37.770;2024-03-23T00:56:47;13.40;;;7.93;;
79019;SDS011;72857;44.740;37.770;2024-03-23T00:57:49;15.23;;;8.93;;
79019;SDS011;72857;44.740;37.770;2024-03-23T00:58:51;15.32;;;7.85;;
79019;SDS011;72857;44.740;37.770;2024-03-23T00:59:52;14.95;;;8.75;;
79019;SDS011;72857;44.740;37.770;2024-03-23T01:00:54;16.80;;;10.02;;
79019;SDS011;72857;44.740;37.770;2024-03-23T01:01:55;14.93;;;8.73;;
79019;SDS011;72857;44.740;37.770;2024-03-23T01:02:56;16.38;;;8.80;;
79019;SDS011;72857;44.740;37.770;2024-03-23T01:03:58;15.25;;;9.77;;
79019;SDS011;72857;44.740;37.770;2024-03-23T01:05:00;15.48;;;8.93;;
79019;SDS011;72857;44.740;37.770;2024-03-23T01:06:02;15.00;;;8.70;;
79019;SDS011;72857;44.740;37.770;2024-03-23T01:07:04;15.25;;;8.63;;
79019;SDS011;72857;44.740;37.770;2024-03-23T01:08:06;14.82;;;8.48;;
79019;SDS011;72857;44.740;37.770;2024-03-23T01:09:07;18.50;;;10.07;;
79019;SDS011;72857;44.740;37.770;2024-03-23T01:10:11;15.40;;;9.18;;
79019;SDS011;72857;44.740;37.770;2024-03-23T01:11:13;15.60;;;10.00;;
79019;SDS011;72857;44.740;37.770;2024-03-23T01:12:14;15.40;;;8.85;;
79019;SDS011;72857;44.740;37.770;2024-03-23T01:13:15;17.38;;;9.55;;
79019;SDS011;72857;44.740;37.770;2024-03-23T01:14:21;17.13;;;10.57;;
79019;SDS011;72857;44.740;37.770;2024-03-23T01:15:23;18.40;;;10.13;;
79019;SDS011;72857;44.740;37.770;2024-03-23T01:16:24;18.17;;;10.25;;
79019;SDS011;72857;44.740;37.770;2024-03-23T01:17:26;17.67;;;10.07;;
79019;SDS011;72857;44.740;37.770;2024-03-23T01:18:27;17.60;;;10.10;;
79019;SDS011;72857;44.740;37.770;2024-03-23T01:19:28;17.73;;;10.68;;
79019;SDS011;72857;44.740;37.770;2024-03-23T01:20:30;16.75;;;10.13;;
79019;SDS011;72857;44.740;37.770;2024-03-23T01:21:31;18.75;;;11.13;;
79019;SDS011;72857;44.740;37.770;2024-03-23T01:22:32;19.17;;;11.48;;
79019;SDS011;72857;44.740;37.770;2024-03-23T01:23:34;16.25;;;9.98;;
79019;SDS011;72857;44.740;37.770;2024-03-23T01:24:35;20.77;;;11.07;;
79019;SDS011;72857;44.740;37.770;2024-03-23T01:25:37;19.85;;;10.63;;
79019;SDS011;72857;44.740;37.770;2024-03-23T01:26:38;18.35;;;11.07;;
79019;SDS011;72857;44.740;37.770;2024-03-23T01:27:40;20.08;;;11.13;;
79019;SDS011;72857;44.740;37.770;2024-03-23T01:28:41;21.70;;;12.00;;
79019;SDS011;72857;44.740;37.770;2024-03-23T01:29:43;21.13;;;11.57;;
79019;SDS011;72857;44.740;37.770;2024-03-23T01:30:44;20.15;;;10.90;;
79019;SDS011;72857;44.740;37.770;2024-03-23T01:31:45;23.55;;;11.70;;
79019;SDS011;72857;44.740;37.770;2024-03-23T01:32:47;19.58;;;11.18;;
79019;SDS011;72857;44.740;37.770;2024-03-23T01:33:48;23.80;;;14.05;;
79019;SDS011;72857;44.740;37.770;2024-03-23T01:34:49;22.13;;;12.20;;
79019;SDS011;72857;44.740;37.770;2024-03-23T01:35:51;21.80;;;12.50;;
79019;SDS011;72857;44.740;37.770;2024-03-23T01:36:52;19.77;;;10.77;;
79019;SDS011;72857;44.740;37.770;2024-03-23T01:37:53;17.77;;;10.00;;
79019;SDS011;72857;44.740;37.770;2024-03-23T01:38:55;25.58;;;11.93;;
79019;SDS011;72857;44.740;37.770;2024-03-23T01:39:56;19.92;;;10.30;;
79019;SDS011;72857;44.740;37.770;2024-03-23T01:40:58;20.15;;;10.65;;
79019;SDS011;72857;44.740;37.770;2024-03-23T01:41:59;20.92;;;11.75;;
79019;SDS011;72857;44.740;37.770;2024-03-23T01:43:07;22.23;;;12.30;;
79019;SDS011;72857;44.740;37.770;2024-03-23T01:44:09;21.20;;;12.27;;
79019;SDS011;72857;44.740;37.770;2024-03-23T01:45:11;20.73;;;11.50;;
79019;SDS011;72857;44.740;37.770;2024-03-23T01:46:13;18.00;;;10.15;;
79019;SDS011;72857;44.740;37.770;2024-03-23T01:47:14;19.15;;;10.75;;
79019;SDS011;72857;44.740;37.770;2024-03-23T01:48:16;16.25;;;8.93;;
79019;SDS011;72857;44.740;37.770;2024-03-23T01:49:20;18.75;;;9.43;;
79019;SDS011;72857;44.740;37.770;2024-03-23T01:50:21;17.73;;;10.02;;
79019;SDS011;72857;44.740;37.770;2024-03-23T01:51:24;17.52;;;9.80;;
79019;SDS011;72857;44.740;37.770;2024-03-23T01:52:27;17.25;;;9.85;;
79019;SDS011;72857;44.740;37.770;2024-03-23T01:53:29;17.98;;;9.30;;
79019;SDS011;72857;44.740;37.770;2024-03-23T01:54:31;17.98;;;8.57;;
79019;SDS011;72857;44.740;37.770;2024-03-23T01:55:33;15.70;;;8.43;;
79019;SDS011;72857;44.740;37.770;2024-03-23T01:56:34;16.80;;;8.25;;
79019;SDS011;72857;44.740;37.770;2024-03-23T01:57:36;14.15;;;8.07;;
79019;SDS011;72857;44.740;37.770;2024-03-23T01:58:38;15.52;;;8.48;;
79019;SDS011;72857;44.740;37.770;2024-03-23T01:59:39;11.93;;;7.00;;
79019;SDS011;72857;44.740;37.770;2024-03-23T02:00:44;13.27;;;8.00;;
79019;SDS011;72857;44.740;37.770;2024-03-23T02:01:45;16.10;;;8.15;;
79019;SDS011;72857;44.740;37.770;2024-03-23T02:02:48;13.40;;;7.45;;
79019;SDS011;72857;44.740;37.770;2024-03-23T02:03:49;16.25;;;8.52;;
79019;SDS011;72857;44.740;37.770;2024-03-23T02:04:50;15.45;;;8.63;;
79019;SDS011;72857;44.740;37.770;2024-03-23T02:05:55;15.43;;;8.65;;
79019;SDS011;72857;44.740;37.770;2024-03-23T02:06:57;16.42;;;9.15;;
79019;SDS011;72857;44.740;37.770;2024-03-23T02:07:58;17.50;;;10.88;;
79019;SDS011;72857;44.740;37.770;2024-03-23T02:09:00;15.23;;;9.07;;
79019;SDS011;72857;44.740;37.770;2024-03-23T02:10:01;16.42;;;9.82;;
79019;SDS011;72857;44.740;37.770;2024-03-23T02:11:03;15.77;;;9.43;;
79019;SDS011;72857;44.740;37.770;2024-03-23T02:12:04;16.15;;;8.15;;
79019;SDS011;72857;44.740;37.770;2024-03-23T02:13:06;15.43;;;8.27;;
79019;SDS011;72857;44.740;37.770;2024-03-23T02:14:07;13.98;;;8.07;;
79019;SDS011;72857;44.740;37.770;2024-03-23T02:15:09;15.68;;;9.10;;
79019;SDS011;72857;44.740;37.770;2024-03-23T02:16:10;14.82;;;8.30;;
79019;SDS011;72857;44.740;37.770;2024-03-23T02:17:12;13.60;;;7.47;;
79019;SDS011;72857;44.740;37.770;2024-03-23T02:18:13;17.38;;;9.50;;
79019;SDS011;72857;44.740;37.770;2024-03-23T02:19:15;17.58;;;8.90;;
79019;SDS011;72857;44.740;37.770;2024-03-23T02:20:16;17.17;;;9.30;;
79019;SDS011;72857;44.740;37.770;2024-03-23T02:21:18;16.23;;;9.90;;
79019;SDS011;72857;44.740;37.770;2024-03-23T02:22:19;15.77;;;8.77;;
79019;SDS011;72857;44.740;37.770;2024-03-23T02:23:20;13.90;;;7.93;;
79019;SDS011;72857;44.740;37.770;2024-03-23T02:24:22;13.10;;;7.55;;
79019;SDS011;72857;44.740;37.770;2024-03-23T02:25:23;14.55;;;8.20;;
79019;SDS011;72857;44.740;37.770;2024-03-23T02:26:25;14.45;;;7.97;;
79019;SDS011;72857;44.740;37.770;2024-03-23T02:27:26;15.38;;;8.30;;
79019;SDS011;72857;44.740;37.770;2024-03-23T02:28:28;14.05;;;8.23;;
79019;SDS011;72857;44.740;37.770;2024-03-23T02:29:30;14.02;;;9.18;;
79019;SDS011;72857;44.740;37.770;2024-03-23T02:30:31;14.75;;;8.77;;
79019;SDS011;72857;44.740;37.770;2024-03-23T02:31:32;14.18;;;7.90;;
79019;SDS011;72857;44.740;37.770;2024-03-23T02:32:34;14.38;;;8.82;;
79019;SDS011;72857;44.740;37.770;2024-03-23T02:33:35;14.10;;;8.00;;
79019;SDS011;72857;44.740;37.770;2024-03-23T02:34:39;14.43;;;8.50;;
79019;SDS011;72857;44.740;37.770;2024-03-23T02:35:40;13.45;;;7.55;;
79019;SDS011;72857;44.740;37.770;2024-03-23T02:36:41;14.05;;;7.07;;
79019;SDS011;72857;44.740;37.770;2024-03-23T02:37:43;14.52;;;7.45;;
79019;SDS011;72857;44.740;37.770;2024-03-23T02:38:44;11.63;;;6.75;;
79019;SDS011;72857;44.740;37.770;2024-03-23T02:39:45;13.38;;;7.28;;
79019;SDS011;72857;44.740;37.770;2024-03-23T02:40:47;16.60;;;8.18;;
79019;SDS011;72857;44.740;37.770;2024-03-23T02:41:48;13.80;;;8.07;;
79019;SDS011;72857;44.740;37.770;2024-03-23T02:42:49;15.30;;;7.82;;
79019;SDS011;72857;44.740;37.770;2024-03-23T02:43:51;14.00;;;8.25;;
79019;SDS011;72857;44.740;37.770;2024-03-23T02:44:52;15.15;;;8.80;;
79019;SDS011;72857;44.740;37.770;2024-03-23T02:45:54;16.42;;;8.90;;
79019;SDS011;72857;44.740;37.770;2024-03-23T02:46:56;16.13;;;8.43;;
79019;SDS011;72857;44.740;37.770;2024-03-23T02:47:57;14.18;;;8.63;;
79019;SDS011;72857;44.740;37.770;2024-03-23T02:48:59;16.90;;;8.45;;
79019;SDS011;72857;44.740;37.770;2024-03-23T02:50:00;24.10;;;10.15;;
79019;SDS011;72857;44.740;37.770;2024-03-23T02:51:02;16.50;;;8.73;;
79019;SDS011;72857;44.740;37.770;2024-03-23T02:52:03;14.68;;;7.40;;
79019;SDS011;72857;44.740;37.770;2024-03-23T02:53:05;17.20;;;9.52;;
79019;SDS011;72857;44.740;37.770;2024-03-23T02:54:06;18.42;;;10.23;;
79019;SDS011;72857;44.740;37.770;2024-03-23T02:55:08;17.15;;;10.13;;
79019;SDS011;72857;44.740;37.770;2024-03-23T02:56:09;21.10;;;10.55;;
79019;SDS011;72857;44.740;37.770;2024-03-23T02:57:16;17.73;;;9.90;;
79019;SDS011;72857;44.740;37.770;2024-03-23T02:58:17;16.65;;;8.98;;
79019;SDS011;72857;44.740;37.770;2024-03-23T02:59:19;15.88;;;9.75;;
79019;SDS011;72857;44.740;37.770;2024-03-23T03:00:20;18.48;;;9.73;;
79019;SDS011;72857;44.740;37.770;2024-03-23T03:01:21;16.85;;;8.88;;
79019;SDS011;72857;44.740;37.770;2024-03-23T03:02:23;18.13;;;9.27;;
79019;SDS011;72857;44.740;37.770;2024-03-23T03:03:24;16.58;;;9.18;;
79019;SDS011;72857;44.740;37.770;2024-03-23T03:04:26;16.95;;;10.15;;
79019;SDS011;72857;44.740;37.770;2024-03-23T03:05:27;19.75;;;10.35;;
79019;SDS011;72857;44.740;37.770;2024-03-23T03:06:31;16.00;;;8.55;;
79019;SDS011;72857;44.740;37.770;2024-03-23T03:08:34;15.23;;;8.10;;
79019;SDS011;72857;44.740;37.770;2024-03-23T03:09:35;16.02;;;8.00;;
79019;SDS011;72857;44.740;37.770;2024-03-23T03:10:36;19.40;;;10.63;;
79019;SDS011;72857;44.740;37.770;2024-03-23T03:11:38;16.95;;;9.50;;
79019;SDS011;72857;44.740;37.770;2024-03-23T03:12:39;18.17;;;10.50;;
79019;SDS011;72857;44.740;37.770;2024-03-23T03:13:40;18.60;;;10.55;;
79019;SDS011;72857;44.740;37.770;2024-03-23T03:14:42;17.27;;;10.18;;
79019;SDS011;72857;44.740;37.770;2024-03-23T03:15:43;15.98;;;9.30;;
79019;SDS011;72857;44.740;37.770;2024-03-23T03:16:45;18.55;;;8.82;;
79019;SDS011;72857;44.740;37.770;2024-03-23T03:17:46;16.35;;;9.48;;
79019;SDS011;72857;44.740;37.770;2024-03-23T03:18:48;17.60;;;9.55;;
79019;SDS011;72857;44.740;37.770;2024-03-23T03:19:49;15.13;;;8.18;;
79019;SDS011;72857;44.740;37.770;2024-03-23T03:20:54;17.00;;;9.07;;
79019;SDS011;72857;44.740;37.770;2024-03-23T03:21:56;14.55;;;8.32;;
79019;SDS011;72857;44.740;37.770;2024-03-23T03:22:57;15.55;;;8.88;;
79019;SDS011;72857;44.740;37.770;2024-03-23T03:24:00;13.48;;;7.88;;
79019;SDS011;72857;44.740;37.770;2024-03-23T03:25:01;17.67;;;8.05;;
79019;SDS011;72857;44.740;37.770;2024-03-23T03:26:04;12.52;;;7.13;;
79019;SDS011;72857;44.740;37.770;2024-03-23T03:27:06;14.68;;;8.20;;
79019;SDS011;72857;44.740;37.770;2024-03-23T03:28:07;14.20;;;7.75;;
79019;SDS011;72857;44.740;37.770;2024-03-23T03:29:09;14.07;;;7.40;;
79019;SDS011;72857;44.740;37.770;2024-03-23T03:30:11;14.27;;;7.95;;
79019;SDS011;72857;44.740;37.770;2024-03-23T03:31:12;14.02;;;7.43;;
79019;SDS011;72857;44.740;37.770;2024-03-23T03:32:14;11.57;;;6.60;;
79019;SDS011;72857;44.740;37.770;2024-03-23T03:33:15;13.55;;;7.93;;
79019;SDS011;72857;44.740;37.770;2024-03-23T03:34:17;15.50;;;8.13;;
79019;SDS011;72857;44.740;37.770;2024-03-23T03:35:18;12.07;;;6.72;;
79019;SDS011;72857;44.740;37.770;2024-03-23T03:36:19;14.32;;;7.57;;
79019;SDS011;72857;44.740;37.770;2024-03-23T03:37:21;14.38;;;7.93;;
79019;SDS011;72857;44.740;37.770;2024-03-23T03:38:23;15.68;;;8.27;;
79019;SDS011;72857;44.740;37.770;2024-03-23T03:39:24;14.70;;;7.60;;
79019;SDS011;72857;44.740;37.770;2024-03-23T03:41:53;13.65;;;7.50;;
79019;SDS011;72857;44.740;37.770;2024-03-23T03:42:55;16.88;;;9.48;;
79019;SDS011;72857;44.740;37.770;2024-03-23T03:43:56;19.00;;;8.77;;
79019;SDS011;72857;44.740;37.770;2024-03-23T03:45:02;16.15;;;7.82;;
79019;SDS011;72857;44.740;37.770;2024-03-23T03:46:05;13.57;;;7.60;;
79019;SDS011;72857;44.740;37.770;2024-03-23T03:47:08;13.30;;;6.85;;
79019;SDS011;72857;44.740;37.770;2024-03-23T03:48:10;11.75;;;7.07;;
79019;SDS011;72857;44.740;37.770;2024-03-23T03:49:12;13.15;;;7.45;;
79019;SDS011;72857;44.740;37.770;2024-03-23T03:50:13;12.80;;;7.40;;
79019;SDS011;72857;44.740;37.770;2024-03-23T03:51:15;13.90;;;7.70;;
79019;SDS011;72857;44.740;37.770;2024-03-23T03:52:17;12.80;;;7.28;;
79019;SDS011;72857;44.740;37.770;2024-03-23T03:53:18;12.85;;;6.75;;
79019;SDS011;72857;44.740;37.770;2024-03-23T03:54:20;12.85;;;7.35;;
79019;SDS011;72857;44.740;37.770;2024-03-23T03:55:22;14.77;;;7.38;;
79019;SDS011;72857;44.740;37.770;2024-03-23T03:56:23;13.35;;;7.25;;
79019;SDS011;72857;44.740;37.770;2024-03-23T03:57:24;12.32;;;7.03;;
79019;SDS011;72857;44.740;37.770;2024-03-23T03:58:26;12.20;;;7.45;;
79019;SDS011;72857;44.740;37.770;2024-03-23T03:59:27;14.95;;;7.55;;
79019;SDS011;72857;44.740;37.770;2024-03-23T04:00:29;13.90;;;7.72;;
79019;SDS011;72857;44.740;37.770;2024-03-23T04:01:30;13.73;;;8.57;;
79019;SDS011;72857;44.740;37.770;2024-03-23T04:02:31;12.60;;;6.95;;
79019;SDS011;72857;44.740;37.770;2024-03-23T04:03:34;11.75;;;5.97;;
79019;SDS011;72857;44.740;37.770;2024-03-23T04:04:35;12.65;;;7.50;;
79019;SDS011;72857;44.740;37.770;2024-03-23T04:05:36;13.25;;;7.07;;
79019;SDS011;72857;44.740;37.770;2024-03-23T04:06:38;10.60;;;5.68;;
79019;SDS011;72857;44.740;37.770;2024-03-23T04:07:40;11.13;;;6.22;;
79019;SDS011;72857;44.740;37.770;2024-03-23T04:08:41;12.60;;;6.30;;
79019;SDS011;72857;44.740;37.770;2024-03-23T04:09:42;10.82;;;6.10;;
79019;SDS011;72857;44.740;37.770;2024-03-23T04:10:44;10.88;;;5.45;;
79019;SDS011;72857;44.740;37.770;2024-03-23T04:11:45;9.27;;;5.05;;
79019;SDS011;72857;44.740;37.770;2024-03-23T04:12:46;9.15;;;4.80;;
79019;SDS011;72857;44.740;37.770;2024-03-23T04:13:49;10.88;;;5.22;;
79019;SDS011;72857;44.740;37.770;2024-03-23T04:14:50;10.90;;;5.63;;
79019;SDS011;72857;44.740;37.770;2024-03-23T04:15:54;9.98;;;5.68;;
79019;SDS011;72857;44.740;37.770;2024-03-23T04:17:00;9.75;;;5.20;;
79019;SDS011;72857;44.740;37.770;2024-03-23T04:18:01;10.00;;;5.60;;
79019;SDS011;72857;44.740;37.770;2024-03-23T04:19:03;10.02;;;5.55;;
79019;SDS011;72857;44.740;37.770;2024-03-23T04:20:05;9.77;;;4.95;;
79019;SDS011;72857;44.740;37.770;2024-03-23T04:21:09;9.43;;;5.55;;
79019;SDS011;72857;44.740;37.770;2024-03-23T04:22:11;11.82;;;5.97;;
79019;SDS011;72857;44.740;37.770;2024-03-23T04:23:12;10.98;;;5.57;;
79019;SDS011;72857;44.740;37.770;2024-03-23T04:24:14;12.65;;;6.53;;
79019;SDS011;72857;44.740;37.770;2024-03-23T04:25:16;11.63;;;6.45;;
79019;SDS011;72857;44.740;37.770;2024-03-23T04:27:21;12.70;;;4.97;;
79019;SDS011;72857;44.740;37.770;2024-03-23T04:28:23;10.45;;;5.90;;
79019;SDS011;72857;44.740;37.770;2024-03-23T04:29:24;11.32;;;5.53;;
79019;SDS011;72857;44.740;37.770;2024-03-23T04:30:27;10.98;;;5.95;;
79019;SDS011;72857;44.740;37.770;2024-03-23T04:31:30;12.00;;;6.72;;
79019;SDS011;72857;44.740;37.770;2024-03-23T04:32:33;10.95;;;6.10;;
79019;SDS011;72857;44.740;37.770;2024-03-23T04:33:34;11.98;;;6.45;;
79019;SDS011;72857;44.740;37.770;2024-03-23T04:34:35;12.43;;;6.47;;
79019;SDS011;72857;44.740;37.770;2024-03-23T04:35:37;10.75;;;6.07;;
79019;SDS011;72857;44.740;37.770;2024-03-23T04:36:38;10.63;;;5.70;;
79019;SDS011;72857;44.740;37.770;2024-03-23T04:37:41;10.98;;;6.53;;
79019;SDS011;72857;44.740;37.770;2024-03-23T04:38:42;11.57;;;6.75;;
79019;SDS011;72857;44.740;37.770;2024-03-23T04:39:43;11.68;;;6.18;;
79019;SDS011;72857;44.740;37.770;2024-03-23T04:41:10;11.48;;;6.45;;
79019;SDS011;72857;44.740;37.770;2024-03-23T04:42:11;10.43;;;5.70;;
79019;SDS011;72857;44.740;37.770;2024-03-23T04:43:16;10.80;;;6.00;;
79019;SDS011;72857;44.740;37.770;2024-03-23T04:44:17;11.32;;;5.70;;
79019;SDS011;72857;44.740;37.770;2024-03-23T04:46:45;10.02;;;5.38;;
79019;SDS011;72857;44.740;37.770;2024-03-23T04:47:51;10.88;;;5.88;;
79019;SDS011;72857;44.740;37.770;2024-03-23T04:48:52;10.27;;;5.30;;
79019;SDS011;72857;44.740;37.770;2024-03-23T04:49:54;10.32;;;5.60;;
79019;SDS011;72857;44.740;37.770;2024-03-23T04:50:55;11.73;;;6.05;;
79019;SDS011;72857;44.740;37.770;2024-03-23T04:51:58;9.27;;;5.28;;
79019;SDS011;72857;44.740;37.770;2024-03-23T04:52:59;11.55;;;5.85;;
79019;SDS011;72857;44.740;37.770;2024-03-23T04:54:01;10.90;;;6.18;;
79019;SDS011;72857;44.740;37.770;2024-03-23T04:55:06;9.73;;;5.53;;
79019;SDS011;72857;44.740;37.770;2024-03-23T04:56:07;10.43;;;5.22;;
79019;SDS011;72857;44.740;37.770;2024-03-23T04:57:09;10.50;;;5.55;;
79019;SDS011;72857;44.740;37.770;2024-03-23T04:58:10;10.23;;;5.53;;
79019;SDS011;72857;44.740;37.770;2024-03-23T04:59:11;10.07;;;5.35;;
79019;SDS011;72857;44.740;37.770;2024-03-23T05:00:15;10.05;;;5.45;;
79019;SDS011;72857;44.740;37.770;2024-03-23T05:01:19;9.82;;;5.05;;
79019;SDS011;72857;44.740;37.770;2024-03-23T05:02:21;11.68;;;5.95;;
79019;SDS011;72857;44.740;37.770;2024-03-23T05:03:23;13.55;;;6.32;;
79019;SDS011;72857;44.740;37.770;2024-03-23T05:04:25;10.98;;;5.72;;
79019;SDS011;72857;44.740;37.770;2024-03-23T05:05:53;12.75;;;6.30;;
79019;SDS011;72857;44.740;37.770;2024-03-23T05:06:54;13.63;;;6.55;;
79019;SDS011;72857;44.740;37.770;2024-03-23T05:07:56;10.55;;;5.22;;
79019;SDS011;72857;44.740;37.770;2024-03-23T05:08:57;12.00;;;6.00;;
79019;SDS011;72857;44.740;37.770;2024-03-23T05:09:58;10.90;;;5.65;;
79019;SDS011;72857;44.740;37.770;2024-03-23T05:11:00;10.55;;;6.10;;
79019;SDS011;72857;44.740;37.770;2024-03-23T05:12:03;11.40;;;6.20;;
79019;SDS011;72857;44.740;37.770;2024-03-23T05:13:05;13.18;;;6.40;;
79019;SDS011;72857;44.740;37.770;2024-03-23T05:14:07;11.55;;;5.88;;
79019;SDS011;72857;44.740;37.770;2024-03-23T05:15:09;13.15;;;6.18;;
79019;SDS011;72857;44.740;37.770;2024-03-23T05:16:10;10.93;;;5.10;;
79019;SDS011;72857;44.740;37.770;2024-03-23T05:17:11;11.68;;;5.50;;
79019;SDS011;72857;44.740;37.770;2024-03-23T05:18:13;11.02;;;5.32;;
79019;SDS011;72857;44.740;37.770;2024-03-23T05:19:14;9.38;;;5.07;;
79019;SDS011;72857;44.740;37.770;2024-03-23T05:20:15;10.60;;;5.88;;
79019;SDS011;72857;44.740;37.770;2024-03-23T05:21:17;14.38;;;5.95;;
79019;SDS011;72857;44.740;37.770;2024-03-23T05:22:18;13.18;;;6.32;;
79019;SDS011;72857;44.740;37.770;2024-03-23T05:23:20;11.95;;;5.88;;
79019;SDS011;72857;44.740;37.770;2024-03-23T05:24:21;12.52;;;6.57;;
79019;SDS011;72857;44.740;37.770;2024-03-23T05:25:23;12.70;;;6.70;;
79019;SDS011;72857;44.740;37.770;2024-03-23T05:26:24;12.48;;;6.63;;
79019;SDS011;72857;44.740;37.770;2024-03-23T05:27:26;11.27;;;6.70;;
79019;SDS011;72857;44.740;37.770;2024-03-23T05:28:27;12.38;;;5.88;;
79019;SDS011;72857;44.740;37.770;2024-03-23T05:29:28;13.65;;;7.68;;
79019;SDS011;72857;44.740;37.770;2024-03-23T05:30:30;14.13;;;6.78;;
79019;SDS011;72857;44.740;37.770;2024-03-23T05:31:31;12.88;;;7.18;;
79019;SDS011;72857;44.740;37.770;2024-03-23T05:32:33;13.43;;;6.85;;
79019;SDS011;72857;44.740;37.770;2024-03-23T05:33:59;15.98;;;7.40;;
79019;SDS011;72857;44.740;37.770;2024-03-23T05:35:00;15.25;;;7.35;;
79019;SDS011;72857;44.740;37.770;2024-03-23T05:36:02;14.00;;;7.63;;
79019;SDS011;72857;44.740;37.770;2024-03-23T05:37:04;16.65;;;7.20;;
79019;SDS011;72857;44.740;37.770;2024-03-23T05:38:06;15.07;;;8.40;;
79019;SDS011;72857;44.740;37.770;2024-03-23T05:39:07;13.90;;;7.80;;
79019;SDS011;72857;44.740;37.770;2024-03-23T05:40:10;14.15;;;7.90;;
79019;SDS011;72857;44.740;37.770;2024-03-23T05:41:13;12.98;;;7.03;;
79019;SDS011;72857;44.740;37.770;2024-03-23T05:42:18;13.95;;;7.35;;
79019;SDS011;72857;44.740;37.770;2024-03-23T05:43:20;14.00;;;7.57;;
79019;SDS011;72857;44.740;37.770;2024-03-23T05:44:21;12.10;;;6.10;;
79019;SDS011;72857;44.740;37.770;2024-03-23T05:45:23;13.23;;;7.22;;
79019;SDS011;72857;44.740;37.770;2024-03-23T05:46:24;14.88;;;8.35;;
79019;SDS011;72857;44.740;37.770;2024-03-23T05:47:25;14.93;;;7.70;;
79019;SDS011;72857;44.740;37.770;2024-03-23T05:48:27;14.02;;;7.70;;
79019;SDS011;72857;44.740;37.770;2024-03-23T05:49:29;14.77;;;8.45;;
79019;SDS011;72857;44.740;37.770;2024-03-23T05:50:31;15.85;;;8.15;;
79019;SDS011;72857;44.740;37.770;2024-03-23T05:51:32;14.60;;;8.20;;
79019;SDS011;72857;44.740;37.770;2024-03-23T05:52:34;15.13;;;8.13;;
79019;SDS011;72857;44.740;37.770;2024-03-23T05:53:35;14.98;;;7.75;;
79019;SDS011;72857;44.740;37.770;2024-03-23T05:54:36;15.80;;;8.48;;
79019;SDS011;72857;44.740;37.770;2024-03-23T05:55:38;16.23;;;8.75;;
79019;SDS011;72857;44.740;37.770;2024-03-23T05:56:39;13.75;;;7.88;;
79019;SDS011;72857;44.740;37.770;2024-03-23T05:57:41;17.13;;;8.43;;
79019;SDS011;72857;44.740;37.770;2024-03-23T06:00:33;14.90;;;7.88;;
79019;SDS011;72857;44.740;37.770;2024-03-23T06:01:35;13.63;;;7.43;;
79019;SDS011;72857;44.740;37.770;2024-03-23T06:02:36;15.45;;;8.65;;
79019;SDS011;72857;44.740;37.770;2024-03-23T06:03:38;13.82;;;7.95;;
79019;SDS011;72857;44.740;37.770;2024-03-23T06:04:39;13.73;;;7.35;;
79019;SDS011;72857;44.740;37.770;2024-03-23T06:05:41;13.25;;;7.15;;
79019;SDS011;72857;44.740;37.770;2024-03-23T06:06:43;14.15;;;7.38;;
79019;SDS011;72857;44.740;37.770;2024-03-23T06:07:44;13.15;;;6.57;;
79019;SDS011;72857;44.740;37.770;2024-03-23T06:08:46;14.45;;;7.82;;
79019;SDS011;72857;44.740;37.770;2024-03-23T06:09:47;14.95;;;7.88;;
79019;SDS011;72857;44.740;37.770;2024-03-23T06:10:51;13.85;;;8.07;;
79019;SDS011;72857;44.740;37.770;2024-03-23T06:11:53;12.98;;;7.43;;
79019;SDS011;72857;44.740;37.770;2024-03-23T06:12:54;14.50;;;8.55;;
79019;SDS011;72857;44.740;37.770;2024-03-23T06:13:56;12.85;;;7.60;;
79019;SDS011;72857;44.740;37.770;2024-03-23T06:14:57;14.52;;;8.00;;
79019;SDS011;72857;44.740;37.770;2024-03-23T06:15:59;12.82;;;7.35;;
79019;SDS011;72857;44.740;37.770;2024-03-23T06:17:01;13.07;;;7.00;;
79019;SDS011;72857;44.740;37.770;2024-03-23T06:18:03;13.52;;;7.40;;
79019;SDS011;72857;44.740;37.770;2024-03-23T06:19:05;14.25;;;7.82;;
79019;SDS011;72857;44.740;37.770;2024-03-23T06:20:07;13.98;;;8.13;;
79019;SDS011;72857;44.740;37.770;2024-03-23T06:21:15;15.90;;;8.20;;
79019;SDS011;72857;44.740;37.770;2024-03-23T06:22:16;15.75;;;7.85;;
79019;SDS011;72857;44.740;37.770;2024-03-23T06:23:18;13.10;;;7.85;;
79019;SDS011;72857;44.740;37.770;2024-03-23T06:24:23;12.82;;;7.43;;
79019;SDS011;72857;44.740;37.770;2024-03-23T06:25:25;12.48;;;7.38;;
79019;SDS011;72857;44.740;37.770;2024-03-23T06:26:26;13.98;;;7.95;;
79019;SDS011;72857;44.740;37.770;2024-03-23T06:27:28;13.98;;;8.18;;
79019;SDS011;72857;44.740;37.770;2024-03-23T06:28:30;14.25;;;8.48;;
79019;SDS011;72857;44.740;37.770;2024-03-23T06:29:31;15.57;;;8.05;;
79019;SDS011;72857;44.740;37.770;2024-03-23T06:30:33;16.60;;;9.38;;
79019;SDS011;72857;44.740;37.770;2024-03-23T06:31:34;14.15;;;7.90;;
79019;SDS011;72857;44.740;37.770;2024-03-23T06:32:35;14.63;;;8.73;;
79019;SDS011;72857;44.740;37.770;2024-03-23T06:33:37;24.48;;;9.30;;
79019;SDS011;72857;44.740;37.770;2024-03-23T06:34:41;15.75;;;8.60;;
79019;SDS011;72857;44.740;37.770;2024-03-23T06:35:42;15.75;;;8.98;;
79019;SDS011;72857;44.740;37.770;2024-03-23T06:36:50;17.00;;;8.63;;
79019;SDS011;72857;44.740;37.770;2024-03-23T06:37:52;14.30;;;8.40;;
79019;SDS011;72857;44.740;37.770;2024-03-23T06:38:53;14.07;;;8.15;;
79019;SDS011;72857;44.740;37.770;2024-03-23T06:39:55;14.25;;;7.72;;
79019;SDS011;72857;44.740;37.770;2024-03-23T06:40:56;14.77;;;8.18;;
79019;SDS011;72857;44.740;37.770;2024-03-23T06:41:58;20.05;;;8.05;;
79019;SDS011;72857;44.740;37.770;2024-03-23T06:43:00;16.65;;;8.18;;
79019;SDS011;72857;44.740;37.770;2024-03-23T06:44:01;16.67;;;9.90;;
79019;SDS011;72857;44.740;37.770;2024-03-23T06:45:03;17.83;;;7.07;;
79019;SDS011;72857;44.740;37.770;2024-03-23T06:46:05;14.20;;;8.52;;
79019;SDS011;72857;44.740;37.770;2024-03-23T06:47:06;18.63;;;8.52;;
79019;SDS011;72857;44.740;37.770;2024-03-23T06:48:08;16.00;;;8.65;;
79019;SDS011;72857;44.740;37.770;2024-03-23T06:49:10;16.40;;;8.75;;
79019;SDS011;72857;44.740;37.770;2024-03-23T06:50:11;16.45;;;9.25;;
79019;SDS011;72857;44.740;37.770;2024-03-23T06:51:13;17.23;;;9.18;;
79019;SDS011;72857;44.740;37.770;2024-03-23T06:52:14;14.85;;;8.27;;
79019;SDS011;72857;44.740;37.770;2024-03-23T06:53:15;15.38;;;8.40;;
79019;SDS011;72857;44.740;37.770;2024-03-23T06:54:20;15.70;;;7.85;;
79019;SDS011;72857;44.740;37.770;2024-03-23T06:55:22;17.80;;;8.13;;
79019;SDS011;72857;44.740;37.770;2024-03-23T06:57:52;12.88;;;7.03;;
79019;SDS011;72857;44.740;37.770;2024-03-23T06:58:53;17.25;;;7.55;;
79019;SDS011;72857;44.740;37.770;2024-03-23T06:59:54;13.82;;;6.80;;
79019;SDS011;72857;44.740;37.770;2024-03-23T07:00:56;15.70;;;8.07;;
79019;SDS011;72857;44.740;37.770;2024-03-23T07:01:57;14.45;;;9.00;;
79019;SDS011;72857;44.740;37.770;2024-03-23T07:03:02;12.02;;;7.13;;
79019;SDS011;72857;44.740;37.770;2024-03-23T07:04:04;12.98;;;7.38;;
79019;SDS011;72857;44.740;37.770;2024-03-23T07:05:06;16.50;;;7.22;;